createdAt,value
2022-08-22T00:02:04.383Z,88.47
2022-08-22T00:07:12.219Z,88.52
2022-08-22T00:12:20.087Z,88.34
2022-08-22T00:17:26.626Z,88.42
2022-08-22T00:22:34.570Z,88.69
2022-08-22T00:27:42.622Z,88.6
2022-08-22T00:32:50.314Z,88.48001
2022-08-22T00:37:57.979Z,88.30001
2022-08-22T00:44:36.701Z,88.14
2022-08-22T00:49:43.374Z,88.43
2022-08-22T00:54:51.102Z,89.24
2022-08-22T00:59:58.785Z,89.01999
2022-08-22T01:05:06.842Z,89.38
2022-08-22T01:10:15.261Z,89.58
2022-08-22T01:15:23.177Z,89.65
2022-08-22T01:20:31.283Z,89.16
2022-08-22T01:25:37.845Z,88.7
2022-08-22T01:30:44.849Z,88.68
2022-08-22T01:35:53.044Z,88.88
2022-08-22T01:41:01.822Z,88.55
2022-08-22T01:46:10.856Z,88.96
2022-08-22T01:51:19.128Z,89.18
2022-08-22T01:56:27.165Z,89.74
2022-08-22T02:01:34.462Z,89.87
2022-08-22T02:06:42.363Z,90.01
2022-08-22T02:11:49.989Z,89.97001
2022-08-22T02:16:58.328Z,89.97001
2022-08-22T02:22:05.679Z,90.2
2022-08-22T02:27:13.523Z,90.01
2022-08-22T02:32:20.695Z,89.77
2022-08-22T02:37:29.046Z,89.56
2022-08-22T02:42:37.525Z,89.26001
2022-08-22T02:47:45.302Z,89.34
2022-08-22T02:52:53.523Z,88.98001
2022-08-22T02:58:01.774Z,88.76
2022-08-22T03:03:09.590Z,89.01999
2022-08-22T03:08:17.522Z,89.1
2022-08-22T03:13:33.578Z,89.34
2022-08-22T03:18:42.004Z,89.5
2022-08-22T03:23:48.697Z,88.74
2022-08-22T03:30:28.077Z,89.01999
2022-08-22T03:35:34.006Z,89.26001
2022-08-22T03:40:41.635Z,88.99
2022-08-22T03:45:49.509Z,89.19001
2022-08-22T03:50:57.533Z,88.14
2022-08-22T03:56:12.397Z,89.13
2022-08-22T04:01:19.831Z,89.53
2022-08-22T04:06:26.946Z,89.56
2022-08-22T04:11:34.618Z,90.13
2022-08-22T04:16:42.520Z,90.46
2022-08-22T04:21:49.659Z,90.33
2022-08-22T04:26:57.651Z,90.44001
2022-08-22T04:32:06.123Z,90.81
2022-08-22T04:37:13.216Z,91.2
2022-08-22T04:42:20.724Z,91.28
2022-08-22T04:47:28.218Z,90.97
2022-08-22T04:52:35.994Z,91.18
2022-08-22T04:57:43.990Z,91.31
2022-08-22T05:02:52.317Z,91.45
2022-08-22T05:08:00.394Z,91.58
2022-08-22T05:13:08.886Z,91.76001
2022-08-22T05:18:17.140Z,91.82
2022-08-22T05:23:24.423Z,91.63
2022-08-22T05:28:32.622Z,91.46
2022-08-22T05:33:41.211Z,91.44
2022-08-22T05:38:49.402Z,91.6
2022-08-22T05:43:57.526Z,91.8
2022-08-22T05:49:06.002Z,91.65
2022-08-22T05:54:13.340Z,91.68
2022-08-22T05:59:21.177Z,91.31
2022-08-22T06:04:29.599Z,91.28
2022-08-22T06:09:37.693Z,91.38
2022-08-22T06:14:45.413Z,91.57001
2022-08-22T06:19:53.810Z,91.54
2022-08-22T06:25:03.780Z,91.63
2022-08-22T06:30:10.926Z,91.92
2022-08-22T06:35:18.486Z,91.89
2022-08-22T06:40:26.406Z,92.01
2022-08-22T06:45:34.426Z,92.08
2022-08-22T06:50:43.381Z,92.0
2022-08-22T06:55:52.497Z,92.11
2022-08-22T07:01:00.088Z,91.88
2022-08-22T07:06:08.726Z,91.76001
2022-08-22T07:11:15.432Z,91.77
2022-08-22T07:16:23.445Z,91.34
2022-08-22T07:21:32.605Z,89.28
2022-08-22T07:26:39.662Z,91.13
2022-08-22T07:31:47.420Z,90.69
2022-08-22T07:36:55.768Z,91.0
2022-08-22T07:42:03.511Z,90.54
2022-08-22T07:47:11.616Z,89.78
2022-08-22T07:52:18.785Z,89.55001
2022-08-22T07:57:28.346Z,89.64
2022-08-22T08:02:35.741Z,88.92
2022-08-22T08:07:43.965Z,88.63
2022-08-22T08:12:51.491Z,88.65001
2022-08-22T08:17:57.317Z,88.84
2022-08-22T08:23:05.652Z,89.5
2022-08-22T08:28:14.169Z,89.57
2022-08-22T08:33:21.759Z,89.53
2022-08-22T08:38:28.943Z,89.40001
2022-08-22T08:43:36.408Z,89.28
2022-08-22T08:48:44.340Z,89.11
2022-08-22T08:53:52.626Z,89.72
2022-08-22T08:59:00.054Z,89.6
2022-08-22T09:04:08.409Z,89.01999
2022-08-22T09:09:16.376Z,89.35
2022-08-22T09:14:23.906Z,88.28
2022-08-22T09:19:32.086Z,88.30001
2022-08-22T09:24:39.920Z,87.23001
2022-08-22T09:29:47.670Z,87.32
2022-08-22T09:34:54.293Z,87.58
2022-08-22T09:40:02.070Z,86.83001
2022-08-22T09:45:10.486Z,86.93
2022-08-22T09:50:18.010Z,86.38
2022-08-22T09:55:25.685Z,85.94001
2022-08-22T10:00:34.136Z,85.24
2022-08-22T10:05:41.489Z,83.91001
2022-08-22T10:10:49.178Z,85.13
2022-08-22T10:15:56.629Z,82.55
2022-08-22T10:21:04.537Z,83.31
2022-08-22T10:26:52.426Z,82.68001
2022-08-22T10:32:00.214Z,82.34
2022-08-22T10:37:06.786Z,82.35
2022-08-22T10:42:14.622Z,82.95
2022-08-22T10:47:21.828Z,83.02
2022-08-22T10:52:29.863Z,82.94001
2022-08-22T10:57:36.871Z,83.06
2022-08-22T11:02:44.084Z,83.08001
2022-08-22T11:07:51.713Z,83.51001
2022-08-22T11:12:58.965Z,82.40001
2022-08-22T11:18:15.516Z,81.93
2022-08-22T11:23:23.098Z,80.83
2022-08-22T11:28:30.651Z,82.68001
2022-08-22T11:33:39.116Z,81.7
2022-08-22T11:38:47.760Z,80.78
2022-08-22T11:43:56.778Z,79.98001
2022-08-22T11:49:04.573Z,81.17
2022-08-22T11:54:12.485Z,80.19
2022-08-22T11:59:20.395Z,80.28
2022-08-22T12:04:28.247Z,79.52
2022-08-22T12:09:34.953Z,79.25
2022-08-22T12:14:43.189Z,81.1
2022-08-22T12:19:51.474Z,80.32001
2022-08-22T12:25:00.076Z,79.46
2022-08-22T12:30:08.730Z,79.63
2022-08-22T12:35:15.450Z,79.42
2022-08-22T12:40:23.944Z,78.9
2022-08-22T12:45:31.033Z,80.01
2022-08-22T12:50:39.140Z,79.94
2022-08-22T12:55:46.148Z,80.48
2022-08-22T13:00:54.622Z,80.91001
2022-08-22T13:06:03.614Z,80.88
2022-08-22T13:11:11.753Z,80.71
2022-08-22T13:16:19.835Z,81.44
2022-08-22T13:21:28.403Z,80.9
2022-08-22T13:26:37.548Z,80.89
2022-08-22T13:31:44.572Z,81.23
2022-08-22T13:36:52.720Z,80.06
2022-08-22T13:42:00.527Z,81.04
2022-08-22T13:47:08.172Z,81.26
2022-08-22T13:52:14.957Z,81.37
2022-08-22T13:57:23.290Z,81.07
2022-08-22T14:02:30.626Z,81.04
2022-08-22T14:07:37.800Z,80.33999
2022-08-22T14:12:45.667Z,80.71
2022-08-22T14:17:54.085Z,80.79
2022-08-22T14:23:00.511Z,81.17
2022-08-22T14:28:09.678Z,81.35
2022-08-22T14:33:17.529Z,81.07
2022-08-22T14:38:24.980Z,81.79
2022-08-22T14:43:33.206Z,82.67
2022-08-22T14:48:41.002Z,81.86
2022-08-22T14:53:47.676Z,82.56
2022-08-22T14:58:54.941Z,82.5
2022-08-22T15:04:03.668Z,82.75001
2022-08-22T15:09:10.089Z,82.34
2022-08-22T15:14:18.968Z,82.6
2022-08-22T15:19:26.669Z,83.6
2022-08-22T15:24:34.258Z,84.07001
2022-08-22T15:29:42.488Z,83.66
2022-08-22T15:34:50.238Z,83.92
2022-08-22T15:39:57.681Z,83.7
2022-08-22T15:45:04.298Z,83.22001
2022-08-22T15:50:11.420Z,83.02
2022-08-22T15:55:19.071Z,83.24
2022-08-22T16:00:27.595Z,83.54
2022-08-22T16:05:34.305Z,84.13
2022-08-22T16:10:41.496Z,83.84
2022-08-22T16:15:48.098Z,83.97
2022-08-22T16:20:56.705Z,84.22
2022-08-22T16:26:05.532Z,84.22
2022-08-22T16:31:19.440Z,84.61
2022-08-22T16:36:27.070Z,84.57
2022-08-22T16:41:33.853Z,84.78
2022-08-22T16:46:43.107Z,84.97001
2022-08-22T16:51:49.922Z,85.52
2022-08-22T16:56:57.185Z,85.73001
2022-08-22T17:02:04.475Z,85.94001
2022-08-22T17:07:13.374Z,85.96
2022-08-22T17:12:20.738Z,85.62
2022-08-22T17:17:27.289Z,86.82
2022-08-22T17:22:35.350Z,87.61001
2022-08-22T17:27:43.025Z,88.06
2022-08-22T17:32:50.142Z,88.25
2022-08-22T17:37:57.784Z,87.76
2022-08-22T17:43:06.330Z,87.93
2022-08-22T17:48:13.831Z,88.1
2022-08-22T17:53:21.326Z,88.52
2022-08-22T17:58:29.454Z,88.30001
2022-08-22T18:03:37.291Z,87.56
2022-08-22T18:08:50.162Z,88.02
2022-08-22T18:13:56.894Z,88.1
2022-08-22T18:19:03.864Z,87.68001
2022-08-22T18:24:11.129Z,87.45
2022-08-22T18:29:18.330Z,87.03
2022-08-22T18:34:25.524Z,86.94
2022-08-22T18:39:32.765Z,86.96
2022-08-22T18:44:41.044Z,86.84
2022-08-22T18:49:48.753Z,86.50001
2022-08-22T18:54:56.881Z,87.01
2022-08-22T19:00:03.420Z,87.14
2022-08-22T19:05:12.060Z,86.58999
2022-08-22T19:10:20.439Z,86.58
2022-08-22T19:15:26.971Z,86.82
2022-08-22T19:20:35.569Z,87.08
2022-08-22T19:25:43.265Z,87.22
2022-08-22T19:30:51.111Z,87.28
2022-08-22T19:35:58.335Z,87.24
2022-08-22T19:41:05.677Z,87.58
2022-08-22T19:46:13.568Z,87.71
2022-08-22T19:51:21.750Z,88.0
2022-08-22T19:56:29.235Z,87.82001
2022-08-22T20:01:37.323Z,87.72
2022-08-22T20:06:45.509Z,87.88
2022-08-22T20:11:52.757Z,87.94001
2022-08-22T20:17:01.176Z,87.92
2022-08-22T20:22:09.163Z,87.54001
2022-08-22T20:27:17.184Z,87.76
2022-08-22T20:32:24.960Z,87.58
2022-08-22T20:37:32.888Z,87.41
2022-08-22T20:42:40.412Z,87.34
2022-08-22T20:47:48.866Z,87.24
2022-08-22T20:52:56.535Z,87.47001
2022-08-22T20:58:03.783Z,88.08001
2022-08-22T21:03:11.432Z,88.7
2022-08-22T21:08:19.146Z,89.32
2022-08-22T21:13:27.423Z,89.66001
2022-08-22T21:18:36.085Z,89.88
2022-08-22T21:23:43.648Z,89.76001
2022-08-22T21:28:51.418Z,89.7
2022-08-22T21:33:58.886Z,89.56
2022-08-22T21:39:07.260Z,89.66001
2022-08-22T21:44:15.451Z,89.63
2022-08-22T21:49:22.120Z,89.98
2022-08-22T21:54:30.015Z,89.78
2022-08-22T21:59:38.295Z,89.43
2022-08-22T22:04:46.804Z,89.58
2022-08-22T22:09:54.774Z,89.72
2022-08-22T22:15:02.789Z,90.04001
2022-08-22T22:20:09.812Z,90.01
2022-08-22T22:25:18.055Z,89.8
2022-08-22T22:30:26.333Z,90.26999
2022-08-22T22:35:34.614Z,90.33999
2022-08-22T22:40:43.865Z,90.26
2022-08-22T22:45:51.575Z,90.22
2022-08-22T22:50:58.806Z,90.14
2022-08-22T22:56:06.247Z,89.92
2022-08-22T23:01:14.066Z,89.85
2022-08-22T23:06:30.283Z,89.8
2022-08-22T23:11:37.629Z,89.72
2022-08-22T23:16:45.714Z,89.43
2022-08-22T23:21:53.542Z,89.38
2022-08-22T23:27:01.485Z,89.32
2022-08-22T23:32:08.597Z,89.19001
2022-08-22T23:37:15.102Z,89.1
2022-08-22T23:42:23.025Z,89.16
2022-08-22T23:47:30.862Z,89.07001
2022-08-22T23:52:38.011Z,89.15
2022-08-22T23:57:45.872Z,89.3
